sensor_id;sensor_type;location;lat;lon;timestamp;P1;durP1;ratioP1;P2;durP2;ratioP2
4754;SDS011;2391;47.212;7.542;2023-08-06T00:00:11;1.00;;;0.80;;
4754;SDS011;2391;47.212;7.542;2023-08-06T00:02:37;1.30;;;1.07;;
4754;SDS011;2391;47.212;7.542;2023-08-06T00:05:03;3.17;;;0.90;;
4754;SDS011;2391;47.212;7.542;2023-08-06T00:07:29;1.00;;;0.80;;
4754;SDS011;2391;47.212;7.542;2023-08-06T00:09:54;1.33;;;0.90;;
4754;SDS011;2391;47.212;7.542;2023-08-06T00:12:20;1.07;;;0.70;;
4754;SDS011;2391;47.212;7.542;2023-08-06T00:14:49;1.47;;;0.83;;
4754;SDS011;2391;47.212;7.542;2023-08-06T00:17:17;1.50;;;0.80;;
4754;SDS011;2391;47.212;7.542;2023-08-06T00:19:43;1.00;;;0.90;;
4754;SDS011;2391;47.212;7.542;2023-08-06T00:22:12;1.10;;;1.00;;
4754;SDS011;2391;47.212;7.542;2023-08-06T00:24:38;0.97;;;0.93;;
4754;SDS011;2391;47.212;7.542;2023-08-06T00:27:03;1.37;;;1.20;;
4754;SDS011;2391;47.212;7.542;2023-08-06T00:29:29;1.13;;;1.00;;
4754;SDS011;2391;47.212;7.542;2023-08-06T00:31:55;1.77;;;0.80;;
4754;SDS011;2391;47.212;7.542;2023-08-06T00:34:21;1.73;;;1.10;;
4754;SDS011;2391;47.212;7.542;2023-08-06T00:36:46;0.80;;;0.80;;
4754;SDS011;2391;47.212;7.542;2023-08-06T00:39:13;1.07;;;0.80;;
4754;SDS011;2391;47.212;7.542;2023-08-06T00:41:39;0.77;;;0.73;;
4754;SDS011;2391;47.212;7.542;2023-08-06T00:44:04;0.90;;;0.90;;
4754;SDS011;2391;47.212;7.542;2023-08-06T00:46:31;1.07;;;0.93;;
4754;SDS011;2391;47.212;7.542;2023-08-06T00:48:58;0.90;;;0.90;;
4754;SDS011;2391;47.212;7.542;2023-08-06T00:51:25;0.90;;;0.70;;
4754;SDS011;2391;47.212;7.542;2023-08-06T00:53:52;1.20;;;0.80;;
4754;SDS011;2391;47.212;7.542;2023-08-06T00:56:18;0.70;;;0.70;;
4754;SDS011;2391;47.212;7.542;2023-08-06T00:58:44;1.00;;;0.83;;
4754;SDS011;2391;47.212;7.542;2023-08-06T01:01:12;1.47;;;0.80;;
4754;SDS011;2391;47.212;7.542;2023-08-06T01:03:38;1.20;;;0.80;;
4754;SDS011;2391;47.212;7.542;2023-08-06T01:06:04;1.10;;;0.80;;
4754;SDS011;2391;47.212;7.542;2023-08-06T01:13:47;1.07;;;0.70;;
4754;SDS011;2391;47.212;7.542;2023-08-06T01:16:17;0.90;;;0.90;;
4754;SDS011;2391;47.212;7.542;2023-08-06T01:18:44;1.57;;;0.80;;
4754;SDS011;2391;47.212;7.542;2023-08-06T01:21:14;3.40;;;0.80;;
4754;SDS011;2391;47.212;7.542;2023-08-06T01:23:41;0.70;;;0.70;;
4754;SDS011;2391;47.212;7.542;2023-08-06T01:26:19;1.90;;;0.90;;
4754;SDS011;2391;47.212;7.542;2023-08-06T01:31:35;0.73;;;0.73;;
4754;SDS011;2391;47.212;7.542;2023-08-06T01:34:03;0.93;;;0.90;;
4754;SDS011;2391;47.212;7.542;2023-08-06T01:36:32;0.73;;;0.73;;
4754;SDS011;2391;47.212;7.542;2023-08-06T01:38:58;1.63;;;0.77;;
4754;SDS011;2391;47.212;7.542;2023-08-06T01:41:25;0.90;;;0.80;;
4754;SDS011;2391;47.212;7.542;2023-08-06T01:43:51;0.70;;;0.70;;
4754;SDS011;2391;47.212;7.542;2023-08-06T01:46:16;2.50;;;1.00;;
4754;SDS011;2391;47.212;7.542;2023-08-06T01:48:43;2.30;;;0.90;;
4754;SDS011;2391;47.212;7.542;2023-08-06T01:51:09;1.07;;;1.00;;
4754;SDS011;2391;47.212;7.542;2023-08-06T01:53:34;0.70;;;0.70;;
4754;SDS011;2391;47.212;7.542;2023-08-06T01:56:00;0.90;;;0.90;;
4754;SDS011;2391;47.212;7.542;2023-08-06T01:58:26;0.80;;;0.80;;
4754;SDS011;2391;47.212;7.542;2023-08-06T02:00:51;0.90;;;0.90;;
4754;SDS011;2391;47.212;7.542;2023-08-06T02:03:17;2.17;;;0.90;;
4754;SDS011;2391;47.212;7.542;2023-08-06T02:05:43;1.10;;;1.00;;
4754;SDS011;2391;47.212;7.542;2023-08-06T02:08:09;1.27;;;0.93;;
4754;SDS011;2391;47.212;7.542;2023-08-06T02:10:34;0.80;;;0.70;;
4754;SDS011;2391;47.212;7.542;2023-08-06T02:13:00;2.80;;;0.70;;
4754;SDS011;2391;47.212;7.542;2023-08-06T02:15:26;0.80;;;0.80;;
4754;SDS011;2391;47.212;7.542;2023-08-06T02:17:51;3.10;;;0.90;;
4754;SDS011;2391;47.212;7.542;2023-08-06T02:20:17;0.80;;;0.80;;
4754;SDS011;2391;47.212;7.542;2023-08-06T02:22:43;0.90;;;0.90;;
4754;SDS011;2391;47.212;7.542;2023-08-06T02:25:08;0.80;;;0.80;;
4754;SDS011;2391;47.212;7.542;2023-08-06T02:27:34;1.00;;;0.80;;
4754;SDS011;2391;47.212;7.542;2023-08-06T02:30:00;1.10;;;0.80;;
4754;SDS011;2391;47.212;7.542;2023-08-06T02:32:26;0.93;;;0.93;;
4754;SDS011;2391;47.212;7.542;2023-08-06T02:34:52;1.00;;;1.00;;
4754;SDS011;2391;47.212;7.542;2023-08-06T02:37:18;1.40;;;0.83;;
4754;SDS011;2391;47.212;7.542;2023-08-06T02:39:43;1.57;;;0.90;;
4754;SDS011;2391;47.212;7.542;2023-08-06T02:42:09;1.40;;;0.90;;
4754;SDS011;2391;47.212;7.542;2023-08-06T02:44:35;2.03;;;1.00;;
4754;SDS011;2391;47.212;7.542;2023-08-06T02:47:01;0.70;;;0.70;;
4754;SDS011;2391;47.212;7.542;2023-08-06T02:49:27;1.63;;;0.80;;
4754;SDS011;2391;47.212;7.542;2023-08-06T02:51:53;0.80;;;0.80;;
4754;SDS011;2391;47.212;7.542;2023-08-06T02:54:19;4.03;;;1.03;;
4754;SDS011;2391;47.212;7.542;2023-08-06T02:56:45;0.80;;;0.80;;
4754;SDS011;2391;47.212;7.542;2023-08-06T02:59:12;0.77;;;0.77;;
4754;SDS011;2391;47.212;7.542;2023-08-06T03:01:38;2.60;;;0.90;;
4754;SDS011;2391;47.212;7.542;2023-08-06T03:04:04;0.77;;;0.77;;
4754;SDS011;2391;47.212;7.542;2023-08-06T03:06:31;1.47;;;0.70;;
4754;SDS011;2391;47.212;7.542;2023-08-06T03:08:57;1.30;;;0.97;;
4754;SDS011;2391;47.212;7.542;2023-08-06T03:11:23;0.90;;;0.83;;
4754;SDS011;2391;47.212;7.542;2023-08-06T03:13:48;0.93;;;0.87;;
4754;SDS011;2391;47.212;7.542;2023-08-06T03:16:14;1.30;;;0.83;;
4754;SDS011;2391;47.212;7.542;2023-08-06T03:18:40;6.40;;;1.60;;
4754;SDS011;2391;47.212;7.542;2023-08-06T03:21:06;2.13;;;1.20;;
4754;SDS011;2391;47.212;7.542;2023-08-06T03:23:32;0.90;;;0.80;;
4754;SDS011;2391;47.212;7.542;2023-08-06T03:26:03;1.00;;;0.80;;
4754;SDS011;2391;47.212;7.542;2023-08-06T03:28:29;1.60;;;0.80;;
4754;SDS011;2391;47.212;7.542;2023-08-06T03:30:59;1.70;;;0.90;;
4754;SDS011;2391;47.212;7.542;2023-08-06T03:33:26;1.00;;;0.80;;
4754;SDS011;2391;47.212;7.542;2023-08-06T03:35:52;1.00;;;0.73;;
4754;SDS011;2391;47.212;7.542;2023-08-06T03:38:18;1.90;;;0.70;;
4754;SDS011;2391;47.212;7.542;2023-08-06T03:40:44;5.47;;;0.80;;
4754;SDS011;2391;47.212;7.542;2023-08-06T03:43:09;2.07;;;1.00;;
4754;SDS011;2391;47.212;7.542;2023-08-06T03:45:35;0.77;;;0.67;;
4754;SDS011;2391;47.212;7.542;2023-08-06T03:48:01;5.23;;;1.10;;
4754;SDS011;2391;47.212;7.542;2023-08-06T03:50:26;1.43;;;0.70;;
4754;SDS011;2391;47.212;7.542;2023-08-06T03:52:52;0.80;;;0.70;;
4754;SDS011;2391;47.212;7.542;2023-08-06T03:55:18;3.00;;;0.87;;
4754;SDS011;2391;47.212;7.542;2023-08-06T03:57:43;1.33;;;0.90;;
4754;SDS011;2391;47.212;7.542;2023-08-06T04:00:09;1.10;;;0.87;;
4754;SDS011;2391;47.212;7.542;2023-08-06T04:02:35;2.37;;;1.00;;
4754;SDS011;2391;47.212;7.542;2023-08-06T04:05:01;2.90;;;1.03;;
4754;SDS011;2391;47.212;7.542;2023-08-06T04:07:27;4.60;;;0.93;;
4754;SDS011;2391;47.212;7.542;2023-08-06T04:10:00;1.40;;;0.93;;
4754;SDS011;2391;47.212;7.542;2023-08-06T04:12:27;4.60;;;1.03;;
4754;SDS011;2391;47.212;7.542;2023-08-06T04:14:53;1.10;;;0.87;;
4754;SDS011;2391;47.212;7.542;2023-08-06T04:17:21;1.37;;;0.50;;
4754;SDS011;2391;47.212;7.542;2023-08-06T04:19:48;0.70;;;0.60;;
4754;SDS011;2391;47.212;7.542;2023-08-06T04:22:15;0.60;;;0.50;;
4754;SDS011;2391;47.212;7.542;2023-08-06T04:24:41;0.67;;;0.60;;
4754;SDS011;2391;47.212;7.542;2023-08-06T04:27:28;2.17;;;0.80;;
4754;SDS011;2391;47.212;7.542;2023-08-06T04:29:54;1.40;;;0.63;;
4754;SDS011;2391;47.212;7.542;2023-08-06T04:35:06;0.57;;;0.57;;
4754;SDS011;2391;47.212;7.542;2023-08-06T04:37:32;2.07;;;0.40;;
4754;SDS011;2391;47.212;7.542;2023-08-06T04:39:58;0.87;;;0.50;;
4754;SDS011;2391;47.212;7.542;2023-08-06T04:42:23;0.87;;;0.50;;
4754;SDS011;2391;47.212;7.542;2023-08-06T04:44:49;1.90;;;0.43;;
4754;SDS011;2391;47.212;7.542;2023-08-06T04:47:15;0.60;;;0.47;;
4754;SDS011;2391;47.212;7.542;2023-08-06T04:49:41;1.20;;;0.53;;
4754;SDS011;2391;47.212;7.542;2023-08-06T04:52:07;0.97;;;0.50;;
4754;SDS011;2391;47.212;7.542;2023-08-06T04:54:33;1.30;;;0.60;;
4754;SDS011;2391;47.212;7.542;2023-08-06T04:56:59;0.40;;;0.40;;
4754;SDS011;2391;47.212;7.542;2023-08-06T04:59:24;0.50;;;0.50;;
4754;SDS011;2391;47.212;7.542;2023-08-06T05:01:50;0.43;;;0.37;;
4754;SDS011;2391;47.212;7.542;2023-08-06T05:04:16;1.00;;;0.40;;
4754;SDS011;2391;47.212;7.542;2023-08-06T05:06:42;1.00;;;0.40;;
4754;SDS011;2391;47.212;7.542;2023-08-06T05:09:07;0.80;;;0.40;;
4754;SDS011;2391;47.212;7.542;2023-08-06T05:11:33;0.90;;;0.50;;
4754;SDS011;2391;47.212;7.542;2023-08-06T05:13:59;3.23;;;0.50;;
4754;SDS011;2391;47.212;7.542;2023-08-06T05:16:25;0.70;;;0.40;;
4754;SDS011;2391;47.212;7.542;2023-08-06T05:18:50;1.43;;;0.60;;
4754;SDS011;2391;47.212;7.542;2023-08-06T05:21:16;0.70;;;0.53;;
4754;SDS011;2391;47.212;7.542;2023-08-06T05:23:42;0.50;;;0.40;;
4754;SDS011;2391;47.212;7.542;2023-08-06T05:26:08;2.50;;;0.40;;
4754;SDS011;2391;47.212;7.542;2023-08-06T05:28:34;1.53;;;0.60;;
4754;SDS011;2391;47.212;7.542;2023-08-06T05:31:03;0.90;;;0.50;;
4754;SDS011;2391;47.212;7.542;2023-08-06T05:33:30;0.50;;;0.40;;
4754;SDS011;2391;47.212;7.542;2023-08-06T05:35:56;0.40;;;0.40;;
4754;SDS011;2391;47.212;7.542;2023-08-06T05:38:21;0.40;;;0.40;;
4754;SDS011;2391;47.212;7.542;2023-08-06T05:40:47;2.40;;;0.73;;
4754;SDS011;2391;47.212;7.542;2023-08-06T05:43:14;0.70;;;0.47;;
4754;SDS011;2391;47.212;7.542;2023-08-06T05:45:43;0.80;;;0.43;;
4754;SDS011;2391;47.212;7.542;2023-08-06T05:48:12;3.27;;;0.50;;
4754;SDS011;2391;47.212;7.542;2023-08-06T05:50:38;0.50;;;0.40;;
4754;SDS011;2391;47.212;7.542;2023-08-06T05:53:03;0.60;;;0.60;;
4754;SDS011;2391;47.212;7.542;2023-08-06T05:55:29;2.20;;;0.50;;
4754;SDS011;2391;47.212;7.542;2023-08-06T05:57:57;0.70;;;0.40;;
4754;SDS011;2391;47.212;7.542;2023-08-06T06:00:23;0.40;;;0.40;;
4754;SDS011;2391;47.212;7.542;2023-08-06T06:02:49;1.97;;;0.50;;
4754;SDS011;2391;47.212;7.542;2023-08-06T06:05:15;1.00;;;0.53;;
4754;SDS011;2391;47.212;7.542;2023-08-06T06:07:40;0.60;;;0.40;;
4754;SDS011;2391;47.212;7.542;2023-08-06T06:10:06;0.50;;;0.40;;
4754;SDS011;2391;47.212;7.542;2023-08-06T06:12:33;0.60;;;0.40;;
4754;SDS011;2391;47.212;7.542;2023-08-06T06:14:58;0.33;;;0.30;;
4754;SDS011;2391;47.212;7.542;2023-08-06T06:17:26;0.90;;;0.40;;
4754;SDS011;2391;47.212;7.542;2023-08-06T06:19:52;0.70;;;0.40;;
4754;SDS011;2391;47.212;7.542;2023-08-06T06:22:18;0.40;;;0.40;;
4754;SDS011;2391;47.212;7.542;2023-08-06T06:24:44;0.47;;;0.33;;
4754;SDS011;2391;47.212;7.542;2023-08-06T06:27:10;2.07;;;0.50;;
4754;SDS011;2391;47.212;7.542;2023-08-06T06:29:35;0.40;;;0.30;;
4754;SDS011;2391;47.212;7.542;2023-08-06T06:32:01;1.57;;;0.60;;
4754;SDS011;2391;47.212;7.542;2023-08-06T06:34:27;0.40;;;0.30;;
4754;SDS011;2391;47.212;7.542;2023-08-06T06:36:52;0.60;;;0.40;;
4754;SDS011;2391;47.212;7.542;2023-08-06T06:39:18;0.37;;;0.30;;
4754;SDS011;2391;47.212;7.542;2023-08-06T06:41:44;1.00;;;0.40;;
4754;SDS011;2391;47.212;7.542;2023-08-06T06:44:09;0.50;;;0.50;;
4754;SDS011;2391;47.212;7.542;2023-08-06T06:46:35;0.83;;;0.40;;
4754;SDS011;2391;47.212;7.542;2023-08-06T06:49:01;0.50;;;0.40;;
4754;SDS011;2391;47.212;7.542;2023-08-06T06:51:27;0.40;;;0.30;;
4754;SDS011;2391;47.212;7.542;2023-08-06T06:53:53;0.70;;;0.30;;
4754;SDS011;2391;47.212;7.542;2023-08-06T06:56:18;0.40;;;0.40;;
4754;SDS011;2391;47.212;7.542;2023-08-06T06:58:44;2.33;;;0.57;;
4754;SDS011;2391;47.212;7.542;2023-08-06T07:01:10;0.60;;;0.40;;
4754;SDS011;2391;47.212;7.542;2023-08-06T07:03:37;0.97;;;0.40;;
4754;SDS011;2391;47.212;7.542;2023-08-06T07:06:03;0.80;;;0.40;;
4754;SDS011;2391;47.212;7.542;2023-08-06T07:08:29;1.70;;;0.30;;
4754;SDS011;2391;47.212;7.542;2023-08-06T07:11:01;2.40;;;0.40;;
4754;SDS011;2391;47.212;7.542;2023-08-06T07:13:29;0.43;;;0.40;;
4754;SDS011;2391;47.212;7.542;2023-08-06T07:15:55;1.27;;;0.40;;
4754;SDS011;2391;47.212;7.542;2023-08-06T07:18:21;0.40;;;0.30;;
4754;SDS011;2391;47.212;7.542;2023-08-06T07:20:48;0.50;;;0.40;;
4754;SDS011;2391;47.212;7.542;2023-08-06T07:23:15;0.50;;;0.43;;
4754;SDS011;2391;47.212;7.542;2023-08-06T07:25:40;0.40;;;0.30;;
4754;SDS011;2391;47.212;7.542;2023-08-06T07:28:06;3.73;;;0.40;;
4754;SDS011;2391;47.212;7.542;2023-08-06T07:30:32;0.40;;;0.33;;
4754;SDS011;2391;47.212;7.542;2023-08-06T07:32:58;0.50;;;0.37;;
4754;SDS011;2391;47.212;7.542;2023-08-06T07:35:23;0.53;;;0.40;;
4754;SDS011;2391;47.212;7.542;2023-08-06T07:37:49;2.40;;;0.43;;
4754;SDS011;2391;47.212;7.542;2023-08-06T07:40:15;2.13;;;0.53;;
4754;SDS011;2391;47.212;7.542;2023-08-06T07:42:41;0.30;;;0.30;;
4754;SDS011;2391;47.212;7.542;2023-08-06T07:45:07;1.80;;;0.30;;
4754;SDS011;2391;47.212;7.542;2023-08-06T07:47:33;0.50;;;0.50;;
4754;SDS011;2391;47.212;7.542;2023-08-06T07:49:59;0.50;;;0.40;;
4754;SDS011;2391;47.212;7.542;2023-08-06T07:52:25;0.40;;;0.40;;
4754;SDS011;2391;47.212;7.542;2023-08-06T07:54:51;0.37;;;0.30;;
4754;SDS011;2391;47.212;7.542;2023-08-06T07:57:16;1.37;;;0.40;;
4754;SDS011;2391;47.212;7.542;2023-08-06T07:59:42;0.30;;;0.30;;
4754;SDS011;2391;47.212;7.542;2023-08-06T08:02:08;0.67;;;0.50;;
4754;SDS011;2391;47.212;7.542;2023-08-06T08:04:33;0.40;;;0.30;;
4754;SDS011;2391;47.212;7.542;2023-08-06T08:06:59;1.00;;;0.40;;
4754;SDS011;2391;47.212;7.542;2023-08-06T08:09:25;0.50;;;0.50;;
4754;SDS011;2391;47.212;7.542;2023-08-06T08:11:50;0.73;;;0.50;;
4754;SDS011;2391;47.212;7.542;2023-08-06T08:14:18;2.30;;;0.40;;
4754;SDS011;2391;47.212;7.542;2023-08-06T08:16:43;0.83;;;0.40;;
4754;SDS011;2391;47.212;7.542;2023-08-06T08:19:09;2.73;;;0.40;;
4754;SDS011;2391;47.212;7.542;2023-08-06T08:21:35;2.73;;;0.40;;
4754;SDS011;2391;47.212;7.542;2023-08-06T08:24:00;0.60;;;0.43;;
4754;SDS011;2391;47.212;7.542;2023-08-06T08:26:26;1.70;;;0.40;;
4754;SDS011;2391;47.212;7.542;2023-08-06T08:28:55;0.40;;;0.30;;
4754;SDS011;2391;47.212;7.542;2023-08-06T08:31:22;0.50;;;0.40;;
4754;SDS011;2391;47.212;7.542;2023-08-06T08:33:48;0.47;;;0.40;;
4754;SDS011;2391;47.212;7.542;2023-08-06T08:36:13;1.37;;;0.30;;
4754;SDS011;2391;47.212;7.542;2023-08-06T08:38:41;1.27;;;0.50;;
4754;SDS011;2391;47.212;7.542;2023-08-06T08:41:09;0.40;;;0.30;;
4754;SDS011;2391;47.212;7.542;2023-08-06T08:43:35;0.40;;;0.40;;
4754;SDS011;2391;47.212;7.542;2023-08-06T08:46:02;1.43;;;0.40;;
4754;SDS011;2391;47.212;7.542;2023-08-06T08:48:30;0.80;;;0.40;;
4754;SDS011;2391;47.212;7.542;2023-08-06T08:50:56;0.73;;;0.30;;
4754;SDS011;2391;47.212;7.542;2023-08-06T08:53:23;0.80;;;0.37;;
4754;SDS011;2391;47.212;7.542;2023-08-06T08:55:51;0.87;;;0.30;;
4754;SDS011;2391;47.212;7.542;2023-08-06T08:58:18;0.40;;;0.40;;
4754;SDS011;2391;47.212;7.542;2023-08-06T09:00:47;0.30;;;0.30;;
4754;SDS011;2391;47.212;7.542;2023-08-06T09:03:13;0.40;;;0.30;;
4754;SDS011;2391;47.212;7.542;2023-08-06T09:05:44;0.80;;;0.50;;
4754;SDS011;2391;47.212;7.542;2023-08-06T09:08:10;0.40;;;0.30;;
4754;SDS011;2391;47.212;7.542;2023-08-06T09:10:38;0.40;;;0.30;;
4754;SDS011;2391;47.212;7.542;2023-08-06T09:13:06;0.30;;;0.20;;
4754;SDS011;2391;47.212;7.542;2023-08-06T09:15:32;0.40;;;0.40;;
4754;SDS011;2391;47.212;7.542;2023-08-06T09:17:59;0.40;;;0.40;;
4754;SDS011;2391;47.212;7.542;2023-08-06T09:20:24;0.57;;;0.47;;
4754;SDS011;2391;47.212;7.542;2023-08-06T09:22:52;0.57;;;0.40;;
4754;SDS011;2391;47.212;7.542;2023-08-06T09:25:22;0.50;;;0.40;;
4754;SDS011;2391;47.212;7.542;2023-08-06T09:27:51;0.40;;;0.40;;
4754;SDS011;2391;47.212;7.542;2023-08-06T09:30:31;0.40;;;0.30;;
4754;SDS011;2391;47.212;7.542;2023-08-06T09:32:58;0.50;;;0.40;;
4754;SDS011;2391;47.212;7.542;2023-08-06T09:35:24;0.70;;;0.50;;
4754;SDS011;2391;47.212;7.542;2023-08-06T09:37:52;0.50;;;0.40;;
4754;SDS011;2391;47.212;7.542;2023-08-06T09:40:24;0.40;;;0.40;;
4754;SDS011;2391;47.212;7.542;2023-08-06T09:42:53;0.80;;;0.43;;
4754;SDS011;2391;47.212;7.542;2023-08-06T09:45:19;0.30;;;0.30;;
4754;SDS011;2391;47.212;7.542;2023-08-06T09:47:48;1.13;;;0.50;;
4754;SDS011;2391;47.212;7.542;2023-08-06T09:50:15;0.40;;;0.40;;
4754;SDS011;2391;47.212;7.542;2023-08-06T09:52:45;0.40;;;0.40;;
4754;SDS011;2391;47.212;7.542;2023-08-06T09:55:13;2.23;;;0.60;;
4754;SDS011;2391;47.212;7.542;2023-08-06T09:57:40;0.40;;;0.40;;
4754;SDS011;2391;47.212;7.542;2023-08-06T10:00:07;0.83;;;0.47;;
4754;SDS011;2391;47.212;7.542;2023-08-06T10:02:39;0.97;;;0.40;;
4754;SDS011;2391;47.212;7.542;2023-08-06T10:05:03;0.93;;;0.40;;
4754;SDS011;2391;47.212;7.542;2023-08-06T10:07:30;0.50;;;0.50;;
4754;SDS011;2391;47.212;7.542;2023-08-06T10:09:56;0.50;;;0.40;;
4754;SDS011;2391;47.212;7.542;2023-08-06T10:12:22;0.50;;;0.50;;
4754;SDS011;2391;47.212;7.542;2023-08-06T10:14:50;1.07;;;0.50;;
4754;SDS011;2391;47.212;7.542;2023-08-06T10:17:19;1.43;;;1.43;;
4754;SDS011;2391;47.212;7.542;2023-08-06T10:19:47;0.77;;;0.50;;
4754;SDS011;2391;47.212;7.542;2023-08-06T10:22:15;0.50;;;0.40;;
4754;SDS011;2391;47.212;7.542;2023-08-06T10:24:55;0.50;;;0.50;;
4754;SDS011;2391;47.212;7.542;2023-08-06T10:27:32;0.50;;;0.37;;
4754;SDS011;2391;47.212;7.542;2023-08-06T10:32:51;0.53;;;0.40;;
4754;SDS011;2391;47.212;7.542;2023-08-06T10:35:31;0.40;;;0.40;;
4754;SDS011;2391;47.212;7.542;2023-08-06T10:38:05;0.80;;;0.47;;
4754;SDS011;2391;47.212;7.542;2023-08-06T10:40:33;0.50;;;0.50;;
4754;SDS011;2391;47.212;7.542;2023-08-06T10:42:59;0.60;;;0.50;;
4754;SDS011;2391;47.212;7.542;2023-08-06T10:45:26;0.77;;;0.40;;
4754;SDS011;2391;47.212;7.542;2023-08-06T10:47:55;0.40;;;0.40;;
4754;SDS011;2391;47.212;7.542;2023-08-06T10:50:24;0.77;;;0.70;;
4754;SDS011;2391;47.212;7.542;2023-08-06T10:52:50;0.40;;;0.30;;
4754;SDS011;2391;47.212;7.542;2023-08-06T10:55:23;0.40;;;0.40;;
4754;SDS011;2391;47.212;7.542;2023-08-06T10:57:53;0.50;;;0.40;;
4754;SDS011;2391;47.212;7.542;2023-08-06T11:00:20;0.40;;;0.40;;
4754;SDS011;2391;47.212;7.542;2023-08-06T11:02:51;0.40;;;0.30;;
4754;SDS011;2391;47.212;7.542;2023-08-06T11:05:18;0.40;;;0.40;;
4754;SDS011;2391;47.212;7.542;2023-08-06T11:07:44;0.70;;;0.40;;
4754;SDS011;2391;47.212;7.542;2023-08-06T11:10:11;0.60;;;0.33;;
4754;SDS011;2391;47.212;7.542;2023-08-06T11:12:38;0.70;;;0.40;;
4754;SDS011;2391;47.212;7.542;2023-08-06T11:15:05;0.73;;;0.50;;
4754;SDS011;2391;47.212;7.542;2023-08-06T11:17:32;1.00;;;0.57;;
4754;SDS011;2391;47.212;7.542;2023-08-06T11:20:00;0.50;;;0.40;;
4754;SDS011;2391;47.212;7.542;2023-08-06T11:22:27;0.53;;;0.50;;
4754;SDS011;2391;47.212;7.542;2023-08-06T11:24:53;0.60;;;0.60;;
4754;SDS011;2391;47.212;7.542;2023-08-06T11:27:20;0.50;;;0.50;;
4754;SDS011;2391;47.212;7.542;2023-08-06T11:29:45;0.50;;;0.50;;
4754;SDS011;2391;47.212;7.542;2023-08-06T11:32:11;0.50;;;0.40;;
4754;SDS011;2391;47.212;7.542;2023-08-06T11:34:38;2.20;;;0.80;;
4754;SDS011;2391;47.212;7.542;2023-08-06T11:37:04;0.50;;;0.50;;
4754;SDS011;2391;47.212;7.542;2023-08-06T11:39:32;1.20;;;0.50;;
4754;SDS011;2391;47.212;7.542;2023-08-06T11:42:03;1.43;;;0.50;;
4754;SDS011;2391;47.212;7.542;2023-08-06T11:44:32;0.50;;;0.40;;
4754;SDS011;2391;47.212;7.542;2023-08-06T11:47:01;0.50;;;0.50;;
4754;SDS011;2391;47.212;7.542;2023-08-06T11:49:46;0.73;;;0.50;;
4754;SDS011;2391;47.212;7.542;2023-08-06T11:52:14;0.93;;;0.67;;
4754;SDS011;2391;47.212;7.542;2023-08-06T11:54:59;0.90;;;0.63;;
4754;SDS011;2391;47.212;7.542;2023-08-06T11:57:13;0.50;;;0.50;;
4754;SDS011;2391;47.212;7.542;2023-08-06T11:59:44;2.50;;;0.77;;
4754;SDS011;2391;47.212;7.542;2023-08-06T12:02:10;2.20;;;0.63;;
4754;SDS011;2391;47.212;7.542;2023-08-06T12:07:32;1.90;;;0.60;;
4754;SDS011;2391;47.212;7.542;2023-08-06T12:10:01;0.87;;;0.60;;
4754;SDS011;2391;47.212;7.542;2023-08-06T12:12:27;1.43;;;0.50;;
4754;SDS011;2391;47.212;7.542;2023-08-06T12:14:53;0.67;;;0.67;;
4754;SDS011;2391;47.212;7.542;2023-08-06T12:17:20;0.50;;;0.47;;
4754;SDS011;2391;47.212;7.542;2023-08-06T12:19:46;0.50;;;0.50;;
4754;SDS011;2391;47.212;7.542;2023-08-06T12:22:13;1.13;;;0.50;;
4754;SDS011;2391;47.212;7.542;2023-08-06T12:24:40;1.03;;;0.67;;
4754;SDS011;2391;47.212;7.542;2023-08-06T12:27:07;0.90;;;0.40;;
4754;SDS011;2391;47.212;7.542;2023-08-06T12:29:33;0.73;;;0.50;;
4754;SDS011;2391;47.212;7.542;2023-08-06T12:32:00;0.70;;;0.70;;
4754;SDS011;2391;47.212;7.542;2023-08-06T12:34:27;1.07;;;0.60;;
4754;SDS011;2391;47.212;7.542;2023-08-06T12:36:52;0.50;;;0.50;;
4754;SDS011;2391;47.212;7.542;2023-08-06T12:39:18;0.70;;;0.40;;
4754;SDS011;2391;47.212;7.542;2023-08-06T12:41:44;0.60;;;0.60;;
4754;SDS011;2391;47.212;7.542;2023-08-06T12:44:11;0.50;;;0.43;;
4754;SDS011;2391;47.212;7.542;2023-08-06T12:46:37;0.50;;;0.50;;
4754;SDS011;2391;47.212;7.542;2023-08-06T12:49:03;2.73;;;0.40;;
4754;SDS011;2391;47.212;7.542;2023-08-06T12:51:29;2.30;;;0.50;;
4754;SDS011;2391;47.212;7.542;2023-08-06T12:53:55;1.30;;;0.40;;
4754;SDS011;2391;47.212;7.542;2023-08-06T12:56:20;0.50;;;0.50;;
4754;SDS011;2391;47.212;7.542;2023-08-06T12:58:49;0.53;;;0.53;;
4754;SDS011;2391;47.212;7.542;2023-08-06T13:01:15;0.50;;;0.50;;
4754;SDS011;2391;47.212;7.542;2023-08-06T13:03:40;0.50;;;0.50;;
4754;SDS011;2391;47.212;7.542;2023-08-06T13:06:06;0.73;;;0.50;;
4754;SDS011;2391;47.212;7.542;2023-08-06T13:08:33;0.50;;;0.40;;
4754;SDS011;2391;47.212;7.542;2023-08-06T13:10:58;0.60;;;0.60;;
4754;SDS011;2391;47.212;7.542;2023-08-06T13:13:24;0.60;;;0.60;;
4754;SDS011;2391;47.212;7.542;2023-08-06T13:15:52;0.83;;;0.40;;
4754;SDS011;2391;47.212;7.542;2023-08-06T13:18:17;0.60;;;0.40;;
4754;SDS011;2391;47.212;7.542;2023-08-06T13:20:43;0.60;;;0.60;;
4754;SDS011;2391;47.212;7.542;2023-08-06T13:23:09;0.53;;;0.53;;
4754;SDS011;2391;47.212;7.542;2023-08-06T13:25:35;0.70;;;0.60;;
4754;SDS011;2391;47.212;7.542;2023-08-06T13:28:03;0.50;;;0.40;;
4754;SDS011;2391;47.212;7.542;2023-08-06T13:30:29;1.57;;;0.60;;
4754;SDS011;2391;47.212;7.542;2023-08-06T13:32:55;0.57;;;0.57;;
4754;SDS011;2391;47.212;7.542;2023-08-06T13:35:22;0.60;;;0.60;;
4754;SDS011;2391;47.212;7.542;2023-08-06T13:37:48;0.70;;;0.50;;
4754;SDS011;2391;47.212;7.542;2023-08-06T13:40:14;0.80;;;0.60;;
4754;SDS011;2391;47.212;7.542;2023-08-06T13:42:40;0.87;;;0.50;;
4754;SDS011;2391;47.212;7.542;2023-08-06T13:45:06;0.70;;;0.40;;
4754;SDS011;2391;47.212;7.542;2023-08-06T13:47:32;0.60;;;0.50;;
4754;SDS011;2391;47.212;7.542;2023-08-06T13:49:58;1.33;;;0.57;;
4754;SDS011;2391;47.212;7.542;2023-08-06T13:52:27;0.53;;;0.50;;
4754;SDS011;2391;47.212;7.542;2023-08-06T13:54:53;0.60;;;0.50;;
4754;SDS011;2391;47.212;7.542;2023-08-06T13:57:18;0.60;;;0.50;;
4754;SDS011;2391;47.212;7.542;2023-08-06T13:59:44;0.70;;;0.50;;
4754;SDS011;2391;47.212;7.542;2023-08-06T14:02:10;1.10;;;0.60;;
4754;SDS011;2391;47.212;7.542;2023-08-06T14:04:36;0.50;;;0.50;;
4754;SDS011;2391;47.212;7.542;2023-08-06T14:07:05;2.20;;;0.70;;
4754;SDS011;2391;47.212;7.542;2023-08-06T14:09:31;0.40;;;0.40;;
4754;SDS011;2391;47.212;7.542;2023-08-06T14:11:57;0.80;;;0.70;;
4754;SDS011;2391;47.212;7.542;2023-08-06T14:14:22;0.60;;;0.50;;
4754;SDS011;2391;47.212;7.542;2023-08-06T14:16:50;0.50;;;0.50;;
4754;SDS011;2391;47.212;7.542;2023-08-06T14:19:15;0.57;;;0.50;;
4754;SDS011;2391;47.212;7.542;2023-08-06T14:21:41;0.40;;;0.40;;
4754;SDS011;2391;47.212;7.542;2023-08-06T14:24:07;0.50;;;0.50;;
4754;SDS011;2391;47.212;7.542;2023-08-06T14:26:33;0.63;;;0.60;;
4754;SDS011;2391;47.212;7.542;2023-08-06T14:28:58;5.37;;;0.80;;
4754;SDS011;2391;47.212;7.542;2023-08-06T14:31:24;0.50;;;0.50;;
4754;SDS011;2391;47.212;7.542;2023-08-06T14:33:50;0.73;;;0.73;;
4754;SDS011;2391;47.212;7.542;2023-08-06T14:36:15;0.93;;;0.50;;
4754;SDS011;2391;47.212;7.542;2023-08-06T14:38:41;1.90;;;0.53;;
4754;SDS011;2391;47.212;7.542;2023-08-06T14:41:07;0.50;;;0.50;;
4754;SDS011;2391;47.212;7.542;2023-08-06T14:43:32;4.43;;;0.60;;
4754;SDS011;2391;47.212;7.542;2023-08-06T14:45:58;0.60;;;0.60;;
4754;SDS011;2391;47.212;7.542;2023-08-06T14:48:24;1.37;;;0.60;;
4754;SDS011;2391;47.212;7.542;2023-08-06T14:50:50;0.60;;;0.60;;
4754;SDS011;2391;47.212;7.542;2023-08-06T14:53:15;0.60;;;0.50;;
4754;SDS011;2391;47.212;7.542;2023-08-06T14:55:41;1.90;;;1.47;;
4754;SDS011;2391;47.212;7.542;2023-08-06T14:58:07;1.00;;;0.70;;
4754;SDS011;2391;47.212;7.542;2023-08-06T15:00:32;1.13;;;0.60;;
4754;SDS011;2391;47.212;7.542;2023-08-06T15:02:58;0.60;;;0.60;;
4754;SDS011;2391;47.212;7.542;2023-08-06T15:05:24;0.60;;;0.53;;
4754;SDS011;2391;47.212;7.542;2023-08-06T15:07:50;1.33;;;0.50;;
4754;SDS011;2391;47.212;7.542;2023-08-06T15:10:18;0.40;;;0.40;;
4754;SDS011;2391;47.212;7.542;2023-08-06T15:12:44;1.17;;;0.40;;
4754;SDS011;2391;47.212;7.542;2023-08-06T15:15:10;0.60;;;0.57;;
4754;SDS011;2391;47.212;7.542;2023-08-06T15:17:36;1.73;;;0.43;;
4754;SDS011;2391;47.212;7.542;2023-08-06T15:20:02;0.50;;;0.50;;
4754;SDS011;2391;47.212;7.542;2023-08-06T15:22:29;0.50;;;0.50;;
4754;SDS011;2391;47.212;7.542;2023-08-06T15:24:56;0.57;;;0.57;;
4754;SDS011;2391;47.212;7.542;2023-08-06T15:27:23;0.50;;;0.50;;